Time;durP1;ratioP1;P1;durP2;ratioP2;P2;SDS_P1;SDS_P2;PMS_P1;PMS_P2;Temp;Humidity;BMP_temperature;BMP_pressure;BME280_temperature;BME280_humidity;BME280_pressure;Samples;Min_cycle;Max_cycle;Signal;HPM_P1;HPM_P2
2022/03/15 00:00:22;;;;;;;0.80;0.70;;;8.40;99.90;;;;;;4413149;32;20155;-66
2022/03/15 00:02:49;;;;;;;0.90;0.90;;;8.40;99.90;;;;;;4433017;32;20411;-66
2022/03/15 00:05:15;;;;;;;7.78;0.95;;;8.40;99.90;;;;;;4418655;32;20084;-66
2022/03/15 00:07:42;;;;;;;1.17;1.05;;;8.40;99.90;;;;;;4426812;32;20097;-66
2022/03/15 00:10:08;;;;;;;0.88;0.88;;;8.40;99.90;;;;;;4425030;32;20103;-66
2022/03/15 00:12:34;;;;;;;0.65;0.50;;;8.30;99.90;;;;;;4416934;32;20074;-66
2022/03/15 00:14:59;;;;;;;2.95;1.25;;;8.30;99.90;;;;;;4413225;32;20066;-66
2022/03/15 00:17:26;;;;;;;5.68;1.20;;;8.30;99.90;;;;;;4427697;32;20185;-66
2022/03/15 00:19:51;;;;;;;0.80;0.75;;;8.20;99.90;;;;;;4414485;32;20127;-66
2022/03/15 00:22:17;;;;;;;3.03;1.05;;;8.30;99.90;;;;;;4417468;32;20518;-66
2022/03/15 00:24:43;;;;;;;0.82;0.82;;;8.30;99.90;;;;;;4419651;32;20089;-66
2022/03/15 00:27:10;;;;;;;9.18;1.20;;;8.30;99.90;;;;;;4437039;32;20554;-66
2022/03/15 00:29:39;;;;;;;2.20;0.65;;;8.30;99.90;;;;;;4415546;32;20538;-66
2022/03/15 00:32:07;;;;;;;1.02;0.85;;;8.30;99.90;;;;;;4432076;32;20069;-66
2022/03/15 00:34:34;;;;;;;1.10;1.00;;;8.30;99.90;;;;;;4434361;32;20090;-66
2022/03/15 00:36:59;;;;;;;4.12;1.50;;;8.30;99.90;;;;;;4437803;32;20069;-66
2022/03/15 00:39:25;;;;;;;2.10;0.90;;;8.30;99.90;;;;;;4429579;32;20116;-66
2022/03/15 00:41:50;;;;;;;2.90;1.12;;;8.20;99.90;;;;;;4431551;32;20073;-66
2022/03/15 00:44:16;;;;;;;1.85;0.95;;;8.20;99.90;;;;;;4418556;32;20071;-66
2022/03/15 00:46:41;;;;;;;1.05;0.88;;;8.20;99.90;;;;;;4435757;32;20085;-66
2022/03/15 00:49:07;;;;;;;0.43;0.43;;;8.10;99.90;;;;;;4430597;32;20065;-66
2022/03/15 00:51:34;;;;;;;1.30;1.17;;;8.20;99.90;;;;;;4439988;32;20061;-66
2022/03/15 00:54:00;;;;;;;1.60;0.80;;;8.30;99.90;;;;;;4423487;32;20097;-66
2022/03/15 00:56:25;;;;;;;0.90;0.90;;;8.30;99.90;;;;;;4420284;32;20063;-66
2022/03/15 00:58:51;;;;;;;3.10;0.95;;;8.20;99.90;;;;;;4420316;32;20081;-66
2022/03/15 01:01:16;;;;;;;1.62;0.70;;;8.20;99.90;;;;;;4422641;32;20094;-66
2022/03/15 01:03:42;;;;;;;1.58;1.23;;;8.20;99.90;;;;;;4426978;32;20128;-66
2022/03/15 01:06:09;;;;;;;0.95;0.95;;;8.20;99.90;;;;;;4418488;32;20073;-66
2022/03/15 01:08:34;;;;;;;0.52;0.52;;;8.10;99.90;;;;;;4422357;32;20064;-66
2022/03/15 01:11:00;;;;;;;2.17;1.25;;;8.00;99.90;;;;;;4426120;32;20448;-66
2022/03/15 01:13:26;;;;;;;1.30;0.93;;;8.00;99.90;;;;;;4429517;32;20074;-66
2022/03/15 01:15:51;;;;;;;1.52;0.90;;;7.90;99.90;;;;;;4435133;32;20509;-66
2022/03/15 01:18:17;;;;;;;0.77;0.77;;;7.80;99.90;;;;;;4434719;32;20563;-66
2022/03/15 01:20:44;;;;;;;6.90;1.02;;;7.80;99.90;;;;;;4432424;32;20082;-66
2022/03/15 01:23:10;;;;;;;1.90;0.82;;;7.80;99.90;;;;;;4420327;32;20120;-66
2022/03/15 01:25:37;;;;;;;1.33;1.23;;;7.70;99.90;;;;;;4420697;32;20089;-66
2022/03/15 01:28:03;;;;;;;7.68;0.95;;;7.60;99.90;;;;;;4410644;32;20528;-66
2022/03/15 01:30:30;;;;;;;2.10;0.90;;;7.50;99.90;;;;;;4430815;32;20072;-66
2022/03/15 01:32:55;;;;;;;1.20;0.90;;;7.60;99.90;;;;;;4428826;32;20143;-66
2022/03/15 01:35:21;;;;;;;1.85;1.30;;;7.70;99.90;;;;;;4435272;32;20069;-66
2022/03/15 01:37:47;;;;;;;3.45;0.95;;;7.70;99.90;;;;;;4441010;32;20088;-66
2022/03/15 01:40:13;;;;;;;0.65;0.65;;;7.80;99.90;;;;;;4440462;32;20134;-66
2022/03/15 01:42:39;;;;;;;1.70;0.75;;;7.70;99.90;;;;;;4441035;32;20065;-66
2022/03/15 01:45:05;;;;;;;5.75;1.20;;;7.60;99.90;;;;;;4439639;32;20093;-66
2022/03/15 01:47:30;;;;;;;1.55;0.85;;;7.60;99.90;;;;;;4437951;32;20455;-66
2022/03/15 01:49:56;;;;;;;2.05;1.23;;;7.70;99.90;;;;;;4442361;32;20068;-66
2022/03/15 01:52:22;;;;;;;0.65;0.65;;;7.60;99.90;;;;;;4442317;32;20088;-66
2022/03/15 01:54:48;;;;;;;1.27;0.90;;;7.50;99.90;;;;;;4441255;32;20623;-66
2022/03/15 01:57:14;;;;;;;2.22;0.82;;;7.40;99.90;;;;;;4441846;32;20126;-66
2022/03/15 01:59:40;;;;;;;1.15;1.00;;;7.40;99.90;;;;;;4442774;32;20123;-66
2022/03/15 02:02:06;;;;;;;1.70;1.10;;;7.40;99.90;;;;;;4441812;32;20093;-66
2022/03/15 02:04:32;;;;;;;0.60;0.60;;;7.40;99.90;;;;;;4425499;32;20124;-66
2022/03/15 02:07:03;;;;;;;0.62;0.62;;;7.40;99.90;;;;;;4428141;32;20104;-66
2022/03/15 02:09:29;;;;;;;2.25;1.00;;;7.40;99.90;;;;;;4426921;32;20119;-66
2022/03/15 02:11:55;;;;;;;1.65;1.35;;;7.40;99.90;;;;;;4441617;32;20502;-66
2022/03/15 02:14:21;;;;;;;3.50;1.23;;;7.40;99.90;;;;;;4427442;32;20092;-66
2022/03/15 02:16:46;;;;;;;0.70;0.70;;;7.30;99.90;;;;;;4441306;32;20064;-66
2022/03/15 02:19:12;;;;;;;1.15;0.60;;;7.20;99.90;;;;;;4440060;32;20085;-66
2022/03/15 02:21:38;;;;;;;5.07;0.80;;;7.20;99.90;;;;;;4441375;32;20080;-66
2022/03/15 02:24:06;;;;;;;0.82;0.82;;;7.20;99.90;;;;;;4425856;32;20089;-66
2022/03/15 02:26:31;;;;;;;0.80;0.80;;;7.00;99.90;;;;;;4442705;32;20133;-66
2022/03/15 02:28:57;;;;;;;0.50;0.50;;;6.90;99.90;;;;;;4425402;32;20128;-66
2022/03/15 02:31:22;;;;;;;2.42;1.20;;;6.90;99.90;;;;;;4441434;32;20175;-66
2022/03/15 02:33:48;;;;;;;18.65;1.00;;;6.70;99.90;;;;;;4441397;32;20073;-66
2022/03/15 02:36:16;;;;;;;0.88;0.50;;;6.60;99.90;;;;;;4443222;32;20525;-66
2022/03/15 02:38:42;;;;;;;0.77;0.77;;;6.70;99.90;;;;;;4427137;32;20548;-66
2022/03/15 02:41:07;;;;;;;1.50;1.33;;;6.70;99.90;;;;;;4441859;32;20400;-66
2022/03/15 02:43:33;;;;;;;1.60;1.10;;;6.80;99.90;;;;;;4440693;32;20517;-66
2022/03/15 02:45:59;;;;;;;0.85;0.82;;;6.80;99.90;;;;;;4437568;32;20076;-66
2022/03/15 02:48:24;;;;;;;3.37;1.70;;;6.80;99.90;;;;;;4414204;32;20496;-66
2022/03/15 02:50:49;;;;;;;0.70;0.65;;;6.80;99.90;;;;;;4427907;32;20596;-66
2022/03/15 02:53:16;;;;;;;0.57;0.57;;;6.80;99.90;;;;;;4442687;32;20076;-66
2022/03/15 02:55:42;;;;;;;1.02;0.88;;;6.90;99.90;;;;;;4440710;32;20131;-66
2022/03/15 02:58:08;;;;;;;0.43;0.43;;;6.90;99.90;;;;;;4441364;32;20089;-66
2022/03/15 03:00:34;;;;;;;1.65;1.27;;;6.90;99.90;;;;;;4440683;32;20073;-66
2022/03/15 03:02:59;;;;;;;2.28;1.12;;;6.80;99.90;;;;;;4441816;32;20081;-66
2022/03/15 03:05:26;;;;;;;0.98;0.93;;;6.70;99.90;;;;;;4440502;32;20076;-66
2022/03/15 03:07:51;;;;;;;0.73;0.70;;;6.70;99.90;;;;;;4441758;32;20116;-66
2022/03/15 03:10:17;;;;;;;2.65;1.35;;;6.70;99.90;;;;;;4441210;32;20100;-66
2022/03/15 03:12:45;;;;;;;0.52;0.52;;;6.70;99.90;;;;;;4443596;32;20116;-66
2022/03/15 03:15:12;;;;;;;0.80;0.80;;;6.60;99.90;;;;;;4428541;32;20088;-66
2022/03/15 03:17:42;;;;;;;5.60;1.30;;;6.50;99.90;;;;;;4442566;32;20100;-66
2022/03/15 03:20:09;;;;;;;1.05;1.00;;;6.50;99.90;;;;;;4437291;32;20081;-66
2022/03/15 03:22:36;;;;;;;4.32;1.05;;;6.50;99.90;;;;;;4441411;32;20061;-66
2022/03/15 03:25:04;;;;;;;2.53;1.55;;;6.50;99.90;;;;;;4440214;32;20068;-66
2022/03/15 03:27:30;;;;;;;1.98;1.30;;;6.50;99.90;;;;;;4441083;32;20077;-66
2022/03/15 03:29:58;;;;;;;3.62;1.50;;;6.50;99.90;;;;;;4439768;32;20077;-66
2022/03/15 03:32:24;;;;;;;0.77;0.77;;;6.50;99.90;;;;;;4439878;32;20636;-66
2022/03/15 03:34:50;;;;;;;0.80;0.60;;;6.40;99.90;;;;;;4436262;32;20146;-66
2022/03/15 03:37:16;;;;;;;1.42;1.33;;;6.50;99.90;;;;;;4441243;32;20093;-66
2022/03/15 03:39:41;;;;;;;3.03;0.85;;;6.60;99.90;;;;;;4436018;32;20587;-66
2022/03/15 03:42:07;;;;;;;17.45;0.90;;;6.70;99.90;;;;;;4436233;32;20097;-66
2022/03/15 03:44:33;;;;;;;3.85;2.05;;;6.50;99.90;;;;;;4439315;32;20088;-66
2022/03/15 03:46:59;;;;;;;0.60;0.60;;;6.40;99.90;;;;;;4441049;32;20117;-66
2022/03/15 03:49:24;;;;;;;0.65;0.65;;;6.30;99.90;;;;;;4438037;32;20078;-66
2022/03/15 03:51:50;;;;;;;1.52;1.10;;;6.30;99.90;;;;;;4440011;32;20077;-66
2022/03/15 03:54:16;;;;;;;1.02;0.93;;;6.20;99.90;;;;;;4440612;32;20065;-66
2022/03/15 03:56:41;;;;;;;0.50;0.50;;;6.20;99.90;;;;;;4426912;32;20169;-66
2022/03/15 03:59:07;;;;;;;1.30;1.10;;;6.20;99.90;;;;;;4440661;32;20135;-65
2022/03/15 04:01:32;;;;;;;2.65;0.70;;;6.20;99.90;;;;;;4441221;32;20088;-65
2022/03/15 04:04:05;;;;;;;1.90;1.30;;;6.20;99.90;;;;;;4440708;32;20109;-65
2022/03/15 04:06:30;;;;;;;0.77;0.77;;;6.20;99.90;;;;;;4440987;32;20064;-65
2022/03/15 04:08:58;;;;;;;0.95;0.85;;;6.10;99.90;;;;;;4440105;32;20093;-65
2022/03/15 04:11:23;;;;;;;1.73;1.15;;;6.10;99.90;;;;;;4441844;32;20097;-65
2022/03/15 04:13:49;;;;;;;2.80;1.75;;;6.10;99.90;;;;;;4439621;32;20078;-65
2022/03/15 04:16:16;;;;;;;0.75;0.60;;;5.90;99.90;;;;;;4439416;32;20072;-65
2022/03/15 04:18:41;;;;;;;0.55;0.55;;;5.90;99.90;;;;;;4438869;32;20124;-66
2022/03/15 04:21:07;;;;;;;0.68;0.68;;;5.90;99.90;;;;;;4441313;32;20144;-65
2022/03/15 04:23:32;;;;;;;0.70;0.70;;;5.80;99.90;;;;;;4441433;32;20557;-65
2022/03/15 04:25:58;;;;;;;0.73;0.73;;;5.90;99.90;;;;;;4439608;32;20090;-65
2022/03/15 04:28:23;;;;;;;1.67;0.90;;;5.90;99.90;;;;;;4434694;32;20516;-65
2022/03/15 04:30:49;;;;;;;1.30;1.20;;;6.10;99.90;;;;;;4437836;32;20078;-65
2022/03/15 04:33:14;;;;;;;3.78;1.30;;;6.10;99.90;;;;;;4441333;32;20123;-65
2022/03/15 04:35:40;;;;;;;0.70;0.70;;;6.20;99.90;;;;;;4430926;32;20166;-65
2022/03/15 04:38:05;;;;;;;0.90;0.60;;;6.10;99.90;;;;;;4419034;32;20116;-66
2022/03/15 04:40:31;;;;;;;0.60;0.60;;;6.10;99.90;;;;;;4423221;32;20070;-65
2022/03/15 04:42:57;;;;;;;0.80;0.80;;;5.80;99.90;;;;;;4423366;32;20065;-65
2022/03/15 04:45:24;;;;;;;1.25;0.75;;;5.80;99.90;;;;;;4423179;32;20227;-65
2022/03/15 04:47:49;;;;;;;0.88;0.88;;;5.80;99.90;;;;;;4430024;32;20061;-65
2022/03/15 04:50:15;;;;;;;3.92;1.35;;;5.70;99.90;;;;;;4426121;32;20070;-65
2022/03/15 04:52:40;;;;;;;2.03;1.37;;;5.80;99.90;;;;;;4417730;32;20077;-65
2022/03/15 04:55:07;;;;;;;0.98;0.85;;;5.90;99.90;;;;;;4409504;32;20077;-65
2022/03/15 04:57:33;;;;;;;4.00;1.20;;;5.90;99.90;;;;;;4433465;32;20367;-65
2022/03/15 04:59:59;;;;;;;0.95;0.95;;;5.80;99.90;;;;;;4419276;32;20089;-65
2022/03/15 05:02:25;;;;;;;0.68;0.68;;;5.70;99.90;;;;;;4434277;32;20077;-65
2022/03/15 05:04:51;;;;;;;0.68;0.68;;;5.50;99.90;;;;;;4430880;32;20576;-65
2022/03/15 05:07:17;;;;;;;0.82;0.73;;;5.50;99.90;;;;;;4431106;32;20082;-65
2022/03/15 05:11:14;;;;;;;1.52;0.88;;;5.40;99.90;;;;;;4426518;32;20061;-65
2022/03/15 05:12:29;;;;;;;1.17;1.12;;;5.30;99.90;;;;;;4409572;32;20072;-65
2022/03/15 05:14:54;;;;;;;2.78;1.45;;;5.30;99.90;;;;;;4426505;32;20077;-66
2022/03/15 05:17:20;;;;;;;5.32;1.67;;;5.30;99.90;;;;;;4417628;32;20077;-66
2022/03/15 05:19:47;;;;;;;0.73;0.73;;;5.30;99.90;;;;;;4421063;32;20081;-66
2022/03/15 05:22:12;;;;;;;2.53;1.30;;;5.30;99.90;;;;;;4421499;32;20089;-66
2022/03/15 05:24:38;;;;;;;5.60;1.48;;;5.40;99.90;;;;;;4426372;32;20434;-65
2022/03/15 05:27:03;;;;;;;1.65;1.25;;;5.40;99.90;;;;;;4422216;32;20129;-66
2022/03/15 05:29:29;;;;;;;1.30;1.20;;;5.50;99.90;;;;;;4425529;32;20073;-66
2022/03/15 05:31:55;;;;;;;0.90;0.90;;;5.50;99.90;;;;;;4420815;32;20082;-66
2022/03/15 05:34:20;;;;;;;3.12;1.40;;;5.50;99.90;;;;;;4429436;32;20057;-65
2022/03/15 05:36:48;;;;;;;1.25;1.15;;;5.50;99.90;;;;;;4422069;32;20073;-65
2022/03/15 05:39:14;;;;;;;0.65;0.62;;;5.60;99.90;;;;;;4425229;32;20082;-65
2022/03/15 05:41:40;;;;;;;1.80;1.25;;;5.60;99.90;;;;;;4420959;32;20076;-65
2022/03/15 05:44:07;;;;;;;1.08;0.77;;;5.60;99.90;;;;;;4420109;32;20068;-65
2022/03/15 05:46:32;;;;;;;0.82;0.82;;;5.60;99.90;;;;;;4426837;32;20923;-65
2022/03/15 05:48:58;;;;;;;0.93;0.77;;;5.70;99.90;;;;;;4425403;32;20062;-65
2022/03/15 05:51:23;;;;;;;1.08;0.98;;;5.80;99.90;;;;;;4427144;32;20073;-65
2022/03/15 05:53:49;;;;;;;0.82;0.82;;;5.90;99.90;;;;;;4428145;32;20072;-65
2022/03/15 05:56:14;;;;;;;2.22;1.70;;;5.90;99.90;;;;;;4423782;32;20073;-65
2022/03/15 05:58:41;;;;;;;3.47;1.27;;;6.10;99.90;;;;;;4423067;32;20091;-65
2022/03/15 06:01:07;;;;;;;11.15;0.95;;;6.20;99.90;;;;;;4416426;32;20070;-65
2022/03/15 06:03:33;;;;;;;0.90;0.73;;;6.10;99.90;;;;;;4419997;32;20555;-65
2022/03/15 06:05:58;;;;;;;1.17;1.08;;;6.00;99.90;;;;;;4419790;32;20073;-65
2022/03/15 06:08:24;;;;;;;3.12;0.95;;;6.00;99.90;;;;;;4421110;32;20065;-65
2022/03/15 06:10:49;;;;;;;0.82;0.82;;;5.90;99.90;;;;;;4424495;32;20073;-65
2022/03/15 06:13:15;;;;;;;0.65;0.65;;;5.90;99.90;;;;;;4416033;32;20085;-65
2022/03/15 06:15:41;;;;;;;0.65;0.65;;;6.00;99.90;;;;;;4416582;32;20089;-65
2022/03/15 06:18:07;;;;;;;5.37;1.35;;;5.90;99.90;;;;;;4406449;32;20499;-66
2022/03/15 06:20:33;;;;;;;0.80;0.80;;;5.90;99.90;;;;;;4415154;32;20069;-66
2022/03/15 06:23:00;;;;;;;0.50;0.50;;;6.00;99.90;;;;;;4425359;32;20049;-66
2022/03/15 06:25:27;;;;;;;2.78;1.27;;;6.10;99.90;;;;;;4408388;32;20210;-66
2022/03/15 06:27:54;;;;;;;0.95;0.93;;;5.90;99.90;;;;;;4405162;32;20057;-66
2022/03/15 06:30:21;;;;;;;0.82;0.82;;;6.00;99.90;;;;;;4405603;32;20089;-66
2022/03/15 06:32:47;;;;;;;5.50;2.22;;;6.00;99.90;;;;;;4393849;32;20156;-65
2022/03/15 06:35:13;;;;;;;1.27;0.62;;;6.00;99.90;;;;;;4420021;32;20468;-66
2022/03/15 06:37:45;;;;;;;3.75;1.25;;;5.90;99.90;;;;;;4411117;32;20096;-66
2022/03/15 06:40:13;;;;;;;2.25;1.17;;;5.80;99.90;;;;;;4419106;32;20158;-66
2022/03/15 06:42:40;;;;;;;0.80;0.80;;;6.00;99.90;;;;;;4417147;32;20463;-66
2022/03/15 06:45:07;;;;;;;1.75;1.05;;;6.10;99.90;;;;;;4427387;32;20568;-66
2022/03/15 06:47:34;;;;;;;1.37;1.25;;;6.10;99.90;;;;;;4419877;32;20956;-66
2022/03/15 06:50:00;;;;;;;1.50;1.08;;;6.10;99.90;;;;;;4431854;32;20112;-66
2022/03/15 06:52:26;;;;;;;0.98;0.98;;;6.00;99.90;;;;;;4423417;32;20065;-64
2022/03/15 06:54:52;;;;;;;1.77;1.12;;;6.00;99.90;;;;;;4416675;32;20113;-66
2022/03/15 06:57:18;;;;;;;0.85;0.85;;;5.90;99.90;;;;;;4406140;32;20401;-65
2022/03/15 06:59:43;;;;;;;1.60;0.90;;;6.00;99.90;;;;;;4403552;32;20505;-65
2022/03/15 07:02:11;;;;;;;2.65;1.37;;;6.00;99.90;;;;;;4401546;32;20151;-65
2022/03/15 07:04:36;;;;;;;1.52;1.42;;;6.00;99.90;;;;;;4407573;32;20576;-66
2022/03/15 07:07:02;;;;;;;2.65;1.23;;;6.00;99.90;;;;;;4406925;32;20108;-66
2022/03/15 07:09:27;;;;;;;0.77;0.77;;;6.10;99.90;;;;;;4407790;32;20533;-66
2022/03/15 07:11:53;;;;;;;3.58;0.85;;;6.30;99.90;;;;;;4405393;32;20110;-65
2022/03/15 07:14:18;;;;;;;1.45;0.75;;;6.00;99.90;;;;;;4400687;32;21599;-66
2022/03/15 07:16:44;;;;;;;2.42;1.27;;;6.10;99.90;;;;;;4407365;32;20076;-65
2022/03/15 07:19:09;;;;;;;1.23;0.98;;;6.30;99.90;;;;;;4403333;32;20153;-66
2022/03/15 07:21:35;;;;;;;2.30;1.65;;;6.40;99.90;;;;;;4412313;32;20124;-65
2022/03/15 07:24:00;;;;;;;2.05;1.33;;;6.40;99.90;;;;;;4414639;32;20153;-65
2022/03/15 07:26:26;;;;;;;0.70;0.70;;;6.50;99.90;;;;;;4408978;32;20085;-65
2022/03/15 07:28:51;;;;;;;1.42;1.00;;;6.60;99.90;;;;;;4405071;32;20733;-65
2022/03/15 07:31:17;;;;;;;2.40;1.48;;;6.70;99.90;;;;;;4398343;32;20580;-66
2022/03/15 07:33:42;;;;;;;4.05;1.33;;;6.70;99.90;;;;;;4411701;32;20190;-65
2022/03/15 07:36:08;;;;;;;1.05;0.98;;;6.70;99.90;;;;;;4401480;32;84122;-66
2022/03/15 07:38:34;;;;;;;1.37;1.12;;;6.60;99.90;;;;;;4403360;32;20741;-65
2022/03/15 07:41:01;;;;;;;1.08;0.90;;;6.80;99.90;;;;;;4408569;32;20247;-65
2022/03/15 07:43:27;;;;;;;1.25;1.00;;;6.80;99.90;;;;;;4412463;32;20085;-65
2022/03/15 07:45:53;;;;;;;7.95;1.55;;;6.90;99.90;;;;;;4398935;32;21567;-65
2022/03/15 07:48:19;;;;;;;2.17;1.25;;;7.10;99.90;;;;;;4404902;32;20703;-65
2022/03/15 07:50:45;;;;;;;5.95;1.17;;;7.20;99.90;;;;;;4410928;32;20096;-66
2022/03/15 07:53:10;;;;;;;6.32;2.58;;;7.10;99.90;;;;;;4389928;32;20094;-66
2022/03/15 07:55:36;;;;;;;5.15;1.37;;;7.20;99.90;;;;;;4410901;32;20065;-66
2022/03/15 07:58:03;;;;;;;1.87;1.08;;;7.50;99.90;;;;;;4409095;32;20077;-66
2022/03/15 08:00:31;;;;;;;4.72;1.90;;;7.60;99.90;;;;;;4394166;32;20101;-67
2022/03/15 08:02:56;;;;;;;9.30;2.10;;;7.70;99.90;;;;;;4399854;32;20471;-67
2022/03/15 08:05:22;;;;;;;1.98;1.48;;;7.90;99.90;;;;;;4397109;32;20085;-67
2022/03/15 08:07:48;;;;;;;2.83;1.25;;;8.00;99.90;;;;;;4403833;32;20547;-67
2022/03/15 08:10:13;;;;;;;2.03;1.08;;;8.00;99.90;;;;;;4390664;32;20129;-67
2022/03/15 08:12:40;;;;;;;3.42;1.35;;;8.20;99.90;;;;;;4395542;32;20118;-66
2022/03/15 08:15:07;;;;;;;2.62;1.23;;;8.20;99.90;;;;;;4400310;32;20085;-67
2022/03/15 08:17:34;;;;;;;2.17;0.85;;;8.40;99.90;;;;;;4399227;32;20565;-66
2022/03/15 08:20:00;;;;;;;1.87;1.48;;;8.60;99.90;;;;;;4395916;32;20084;-66
2022/03/15 08:22:26;;;;;;;9.50;2.67;;;8.60;99.90;;;;;;4408478;32;20169;-66
2022/03/15 08:24:51;;;;;;;2.08;0.90;;;8.70;99.90;;;;;;4412095;32;20514;-67
2022/03/15 08:27:17;;;;;;;4.15;1.02;;;8.80;99.90;;;;;;4411865;32;20104;-67
2022/03/15 08:29:43;;;;;;;1.60;1.27;;;8.80;99.90;;;;;;4409087;32;20160;-66
2022/03/15 08:32:09;;;;;;;0.77;0.70;;;9.00;99.90;;;;;;4401926;32;20487;-66
2022/03/15 08:34:35;;;;;;;12.65;3.00;;;9.00;99.90;;;;;;4394308;32;20260;-67
2022/03/15 08:37:00;;;;;;;4.75;1.25;;;9.00;99.90;;;;;;4402771;32;20097;-68
2022/03/15 08:39:27;;;;;;;1.37;1.23;;;9.10;99.90;;;;;;4403258;32;20135;-67
2022/03/15 08:41:53;;;;;;;0.70;0.70;;;9.20;99.90;;;;;;4418101;32;20109;-67
2022/03/15 08:44:19;;;;;;;1.50;1.25;;;9.30;99.90;;;;;;4414060;32;20178;-67
2022/03/15 08:46:47;;;;;;;3.30;1.37;;;9.50;99.90;;;;;;4409737;32;20088;-66
2022/03/15 08:49:13;;;;;;;0.68;0.68;;;9.70;99.90;;;;;;4405078;32;20144;-66
2022/03/15 08:51:39;;;;;;;1.08;0.77;;;9.90;99.90;;;;;;4392921;32;20072;-66
2022/03/15 08:54:04;;;;;;;0.95;0.95;;;9.90;99.90;;;;;;4397739;32;20700;-67
2022/03/15 08:56:31;;;;;;;1.48;0.80;;;10.10;99.90;;;;;;4386689;32;20414;-67
2022/03/15 08:58:56;;;;;;;1.35;0.80;;;10.20;99.90;;;;;;4395718;32;20113;-68
2022/03/15 09:01:22;;;;;;;1.55;1.02;;;10.20;99.90;;;;;;4386654;32;20101;-66
2022/03/15 09:03:48;;;;;;;3.90;2.15;;;10.20;99.90;;;;;;4399248;32;20177;-66
2022/03/15 09:06:13;;;;;;;30.75;1.15;;;10.40;99.90;;;;;;4402333;32;20611;-66
2022/03/15 09:08:39;;;;;;;1.70;1.52;;;10.60;99.90;;;;;;4401818;32;20089;-66
2022/03/15 09:11:04;;;;;;;1.08;1.00;;;10.60;99.90;;;;;;4407737;32;20155;-66
2022/03/15 09:13:30;;;;;;;2.10;1.05;;;10.60;99.90;;;;;;4405587;32;20085;-67
2022/03/15 09:15:55;;;;;;;2.47;1.35;;;10.80;99.90;;;;;;4404169;32;20478;-67
2022/03/15 09:18:22;;;;;;;22.10;1.58;;;10.90;99.90;;;;;;4410435;32;20092;-67
2022/03/15 09:20:47;;;;;;;1.45;0.98;;;11.00;99.90;;;;;;4400494;32;20097;-67
2022/03/15 09:23:13;;;;;;;1.27;1.15;;;11.10;99.90;;;;;;4398221;32;20085;-67
2022/03/15 09:25:38;;;;;;;0.70;0.70;;;11.20;99.90;;;;;;4399827;32;21012;-66
2022/03/15 09:28:05;;;;;;;1.15;1.05;;;11.10;99.90;;;;;;4398190;32;20093;-67
2022/03/15 09:30:32;;;;;;;4.75;1.35;;;11.00;99.90;;;;;;4404834;32;20287;-66
2022/03/15 09:32:58;;;;;;;14.90;1.50;;;11.10;99.90;;;;;;4408966;32;20116;-66
2022/03/15 09:35:24;;;;;;;1.40;0.93;;;11.20;99.90;;;;;;4408011;32;22432;-66
2022/03/15 09:37:50;;;;;;;4.95;1.20;;;11.40;99.90;;;;;;4413993;32;20128;-67
2022/03/15 09:40:21;;;;;;;2.20;1.08;;;11.60;99.90;;;;;;4416158;32;20235;-67
2022/03/15 09:42:50;;;;;;;14.77;2.53;;;11.40;99.90;;;;;;4412897;32;20068;-67
2022/03/15 09:45:21;;;;;;;4.28;1.35;;;11.60;99.90;;;;;;4409699;32;20093;-67
2022/03/15 09:47:51;;;;;;;4.40;1.80;;;11.70;99.90;;;;;;4414989;32;20093;-67
2022/03/15 09:50:17;;;;;;;3.25;1.45;;;11.90;99.90;;;;;;4410380;32;20154;-67
2022/03/15 09:52:43;;;;;;;1.58;0.98;;;11.90;99.90;;;;;;4413770;32;20490;-67
2022/03/15 09:55:11;;;;;;;1.87;1.52;;;12.00;99.90;;;;;;4413897;32;20136;-67
2022/03/15 09:57:36;;;;;;;4.12;1.27;;;12.00;99.90;;;;;;4417618;32;20097;-67
2022/03/15 10:00:03;;;;;;;5.12;1.25;;;12.00;99.90;;;;;;4412135;32;20101;-67
2022/03/15 10:02:30;;;;;;;2.97;1.58;;;12.00;99.90;;;;;;4405895;32;20860;-67
2022/03/15 10:04:55;;;;;;;5.20;1.52;;;11.90;99.90;;;;;;4405977;32;20729;-68
2022/03/15 10:07:21;;;;;;;3.22;1.25;;;12.10;99.90;;;;;;4413370;32;20089;-67
2022/03/15 10:09:46;;;;;;;5.00;1.85;;;12.30;99.90;;;;;;4415114;32;20080;-67
2022/03/15 10:12:12;;;;;;;3.10;0.93;;;12.60;99.90;;;;;;4404141;32;20588;-67
2022/03/15 10:14:41;;;;;;;1.75;0.95;;;12.70;99.90;;;;;;4401667;32;21081;-67
2022/03/15 10:17:06;;;;;;;1.05;0.80;;;12.90;99.90;;;;;;4398166;32;20200;-67
2022/03/15 10:19:32;;;;;;;2.17;1.23;;;13.00;99.90;;;;;;4405242;32;20981;-66
2022/03/15 10:21:58;;;;;;;1.77;1.35;;;12.90;99.90;;;;;;4395925;32;20608;-66
2022/03/15 10:24:27;;;;;;;1.62;1.08;;;13.30;99.90;;;;;;4398037;32;20117;-66
2022/03/15 10:26:55;;;;;;;2.37;1.40;;;13.40;99.90;;;;;;4393332;32;20221;-66
2022/03/15 10:29:22;;;;;;;2.35;1.50;;;13.30;99.90;;;;;;4410024;32;20415;-66
2022/03/15 10:31:48;;;;;;;3.17;1.10;;;13.40;99.90;;;;;;4402752;32;20084;-66
2022/03/15 10:34:16;;;;;;;2.25;1.30;;;13.50;99.90;;;;;;4401433;32;20140;-67
2022/03/15 10:36:45;;;;;;;2.05;0.95;;;13.30;99.90;;;;;;4391731;32;20116;-66
2022/03/15 10:39:12;;;;;;;6.18;1.52;;;12.90;99.90;;;;;;4387815;32;20529;-66
2022/03/15 10:41:56;;;;;;;1.02;0.93;;;12.80;99.90;;;;;;4391049;32;20159;-67
2022/03/15 10:44:25;;;;;;;0.85;0.85;;;13.00;99.90;;;;;;4392900;32;20101;-67
2022/03/15 10:47:13;;;;;;;0.80;0.80;;;13.20;99.90;;;;;;4392706;32;20113;-67
2022/03/15 10:49:51;;;;;;;1.45;1.33;;;13.40;99.90;;;;;;4388320;32;20097;-66
2022/03/15 10:52:35;;;;;;;3.33;1.35;;;13.40;99.90;;;;;;4402347;32;20705;-67
2022/03/15 10:55:11;;;;;;;3.30;1.85;;;13.30;99.90;;;;;;4394057;32;20810;-67
2022/03/15 10:57:53;;;;;;;9.80;1.50;;;13.30;99.90;;;;;;4402300;32;20109;-67
2022/03/15 11:00:22;;;;;;;1.75;1.02;;;12.70;99.90;;;;;;4395521;32;20090;-67
2022/03/15 11:02:50;;;;;;;4.78;0.75;;;12.90;99.90;;;;;;4402144;32;20474;-67
2022/03/15 11:05:33;;;;;;;1.52;1.20;;;13.20;99.90;;;;;;4405642;32;20625;-67
2022/03/15 11:08:08;;;;;;;1.15;0.88;;;13.10;99.90;;;;;;4392062;32;20129;-67
2022/03/15 11:10:35;;;;;;;2.42;1.33;;;13.10;99.90;;;;;;4396480;32;20525;-67
2022/03/15 11:13:11;;;;;;;1.48;1.10;;;13.20;99.90;;;;;;4400283;32;20347;-67
2022/03/15 11:15:44;;;;;;;3.62;1.05;;;13.20;99.90;;;;;;4390208;32;20097;-67
2022/03/15 11:18:11;;;;;;;2.12;0.88;;;13.30;99.90;;;;;;4393548;32;20299;-67
2022/03/15 11:20:39;;;;;;;4.72;1.95;;;13.40;99.90;;;;;;4396997;32;20188;-67
2022/03/15 11:23:07;;;;;;;0.90;0.90;;;13.40;99.90;;;;;;4394663;32;20147;-67
2022/03/15 11:25:37;;;;;;;5.57;1.50;;;13.50;99.90;;;;;;4404190;32;20090;-68
2022/03/15 11:28:06;;;;;;;6.10;0.95;;;13.60;99.90;;;;;;4408837;32;20279;-66
2022/03/15 11:30:32;;;;;;;1.15;0.70;;;13.60;99.90;;;;;;4403376;32;20077;-66
2022/03/15 11:33:01;;;;;;;1.45;0.70;;;13.80;99.90;;;;;;4409519;32;21055;-66
2022/03/15 11:35:29;;;;;;;0.73;0.73;;;13.90;99.90;;;;;;4409806;32;20077;-66
2022/03/15 11:37:57;;;;;;;4.93;1.08;;;14.00;99.90;;;;;;4407562;32;20287;-65
2022/03/15 11:40:22;;;;;;;3.67;1.10;;;14.10;99.90;;;;;;4405534;32;20089;-66
2022/03/15 11:42:55;;;;;;;2.87;1.52;;;14.20;99.90;;;;;;4393632;32;20074;-66
2022/03/15 11:45:28;;;;;;;5.43;1.20;;;14.20;99.90;;;;;;4402989;32;20102;-67
2022/03/15 11:48:22;;;;;;;1.33;0.95;;;14.30;99.90;;;;;;4401335;32;20097;-66
2022/03/15 11:51:13;;;;;;;5.95;1.37;;;14.30;99.90;;;;;;4395573;32;20060;-66
2022/03/15 11:53:49;;;;;;;2.65;1.90;;;14.30;99.90;;;;;;4385669;32;20188;-66
2022/03/15 11:56:45;;;;;;;3.33;1.20;;;14.30;99.90;;;;;;4380957;32;20599;-67
2022/03/15 11:59:11;;;;;;;2.17;1.70;;;14.20;99.90;;;;;;4372530;32;20117;-67
2022/03/15 12:01:46;;;;;;;0.85;0.75;;;13.90;99.90;;;;;;4375599;32;20418;-67
2022/03/15 12:04:11;;;;;;;1.58;1.25;;;14.10;99.90;;;;;;4392779;32;20069;-66
2022/03/15 12:06:46;;;;;;;1.87;1.00;;;14.20;99.90;;;;;;4390145;32;20809;-67
2022/03/15 12:09:12;;;;;;;1.83;0.85;;;14.20;99.90;;;;;;4389741;32;20101;-68
2022/03/15 12:11:40;;;;;;;0.70;0.70;;;14.30;99.90;;;;;;4387810;32;20790;-66
2022/03/15 12:14:09;;;;;;;6.97;1.70;;;14.20;99.90;;;;;;4391493;32;20455;-66
2022/03/15 12:16:41;;;;;;;1.92;0.98;;;14.30;99.90;;;;;;4396245;32;20709;-67
2022/03/15 12:19:14;;;;;;;0.55;0.55;;;14.30;99.90;;;;;;4398787;32;20085;-66
2022/03/15 12:21:49;;;;;;;5.55;1.12;;;14.20;99.90;;;;;;4393645;32;20064;-66
2022/03/15 12:24:19;;;;;;;5.80;0.93;;;14.20;99.90;;;;;;4401233;32;20097;-66
2022/03/15 12:26:58;;;;;;;4.40;1.45;;;13.90;99.90;;;;;;4395521;32;20154;-66
2022/03/15 12:29:26;;;;;;;0.98;0.88;;;13.90;99.90;;;;;;4404724;32;20505;-66
2022/03/15 12:31:52;;;;;;;1.45;1.05;;;13.70;99.90;;;;;;4397171;32;20137;-67
2022/03/15 12:34:19;;;;;;;1.60;1.27;;;14.20;99.90;;;;;;4401100;32;20595;-66
2022/03/15 12:36:54;;;;;;;2.62;1.42;;;14.60;99.90;;;;;;4414531;32;20756;-66
2022/03/15 12:39:22;;;;;;;1.20;0.80;;;14.60;99.90;;;;;;4420292;32;20171;-66
2022/03/15 12:41:49;;;;;;;0.88;0.85;;;14.90;99.90;;;;;;4412025;32;20161;-67
2022/03/15 12:44:21;;;;;;;22.30;2.87;;;15.10;99.90;;;;;;4411222;32;20536;-67
2022/03/15 12:46:47;;;;;;;6.07;0.80;;;15.20;99.90;;;;;;4408291;32;20084;-66
2022/03/15 12:49:18;;;;;;;1.37;0.90;;;14.80;99.90;;;;;;4412795;32;20097;-67
2022/03/15 12:51:45;;;;;;;0.50;0.50;;;14.40;99.90;;;;;;4403554;32;20236;-67